sensor_id;sensor_type;location;lat;lon;timestamp;pressure;altitude;pressure_sealevel;temperature;humidity
50292;BME280;36190;54.980;73.388;2023-04-26T00:01:39;100711.72;;;10.91;46.09
50292;BME280;36190;54.980;73.388;2023-04-26T00:04:07;100712.72;;;10.90;46.13
50292;BME280;36190;54.980;73.388;2023-04-26T00:06:34;100724.09;;;10.92;46.19
50292;BME280;36190;54.980;73.388;2023-04-26T00:09:11;100718.56;;;10.94;46.20
50292;BME280;36190;54.980;73.388;2023-04-26T00:11:39;100716.06;;;10.92;45.93
50292;BME280;36190;54.980;73.388;2023-04-26T00:14:06;100710.72;;;10.92;45.94
50292;BME280;36190;54.980;73.388;2023-04-26T00:16:35;100711.41;;;10.94;45.91
50292;BME280;36190;54.980;73.388;2023-04-26T00:19:03;100713.06;;;10.95;45.94
50292;BME280;36190;54.980;73.388;2023-04-26T00:21:30;100718.25;;;10.97;45.88
50292;BME280;36190;54.980;73.388;2023-04-26T00:23:57;100713.59;;;10.99;45.83
50292;BME280;36190;54.980;73.388;2023-04-26T00:26:25;100713.44;;;11.00;45.88
50292;BME280;36190;54.980;73.388;2023-04-26T00:28:52;100714.09;;;11.03;45.78
50292;BME280;36190;54.980;73.388;2023-04-26T00:31:20;100712.25;;;11.03;45.71
50292;BME280;36190;54.980;73.388;2023-04-26T01:00:54;100723.16;;;11.43;45.00
50292;BME280;36190;54.980;73.388;2023-04-26T01:03:22;100726.16;;;11.48;45.04
50292;BME280;36190;54.980;73.388;2023-04-26T01:09:11;100727.00;;;11.57;44.60
50292;BME280;36190;54.980;73.388;2023-04-26T01:11:41;100730.19;;;11.61;44.70
50292;BME280;36190;54.980;73.388;2023-04-26T01:14:09;100732.19;;;11.67;44.69
50292;BME280;36190;54.980;73.388;2023-04-26T01:16:38;100729.84;;;11.72;44.40
50292;BME280;36190;54.980;73.388;2023-04-26T01:19:07;100731.34;;;11.75;44.47
50292;BME280;36190;54.980;73.388;2023-04-26T01:21:37;100735.38;;;11.79;44.38
50292;BME280;36190;54.980;73.388;2023-04-26T01:24:08;100736.88;;;11.81;44.37
50292;BME280;36190;54.980;73.388;2023-04-26T01:26:36;100741.72;;;11.86;44.24
50292;BME280;36190;54.980;73.388;2023-04-26T01:29:14;100748.22;;;11.92;44.40
50292;BME280;36190;54.980;73.388;2023-04-26T01:31:42;100746.88;;;11.96;44.12
50292;BME280;36190;54.980;73.388;2023-04-26T01:34:09;100749.03;;;12.01;44.06
50292;BME280;36190;54.980;73.388;2023-04-26T01:36:37;100746.91;;;12.04;44.13
50292;BME280;36190;54.980;73.388;2023-04-26T01:39:06;100752.75;;;12.08;44.04
50292;BME280;36190;54.980;73.388;2023-04-26T01:41:34;100751.91;;;12.16;43.78
50292;BME280;36190;54.980;73.388;2023-04-26T01:44:01;100756.56;;;12.22;43.75
50292;BME280;36190;54.980;73.388;2023-04-26T01:46:29;100754.88;;;12.29;43.93
50292;BME280;36190;54.980;73.388;2023-04-26T01:48:56;100755.88;;;12.36;43.59
50292;BME280;36190;54.980;73.388;2023-04-26T01:51:24;100770.25;;;12.44;43.53
50292;BME280;36190;54.980;73.388;2023-04-26T01:53:51;100764.22;;;12.50;43.58
50292;BME280;36190;54.980;73.388;2023-04-26T01:56:23;100764.19;;;12.58;43.38
50292;BME280;36190;54.980;73.388;2023-04-26T01:58:50;100777.38;;;12.68;43.27
50292;BME280;36190;54.980;73.388;2023-04-26T02:01:18;100787.84;;;12.78;42.97
50292;BME280;36190;54.980;73.388;2023-04-26T02:03:45;100784.50;;;12.84;42.79
50292;BME280;36190;54.980;73.388;2023-04-26T02:06:13;100783.63;;;12.92;42.66
50292;BME280;36190;54.980;73.388;2023-04-26T02:08:41;100778.41;;;12.99;42.57
50292;BME280;36190;54.980;73.388;2023-04-26T02:11:08;100789.09;;;13.07;42.22
50292;BME280;36190;54.980;73.388;2023-04-26T02:13:37;100785.72;;;13.13;42.05
50292;BME280;36190;54.980;73.388;2023-04-26T02:16:05;100779.28;;;13.23;41.82
50292;BME280;36190;54.980;73.388;2023-04-26T02:18:33;100785.63;;;13.30;41.86
50292;BME280;36190;54.980;73.388;2023-04-26T02:21:00;100792.13;;;13.36;41.62
50292;BME280;36190;54.980;73.388;2023-04-26T02:23:28;100790.56;;;13.41;41.43
50292;BME280;36190;54.980;73.388;2023-04-26T02:25:56;100788.03;;;13.48;41.50
50292;BME280;36190;54.980;73.388;2023-04-26T02:28:23;100789.84;;;13.56;41.39
50292;BME280;36190;54.980;73.388;2023-04-26T02:30:52;100788.28;;;13.61;41.11
50292;BME280;36190;54.980;73.388;2023-04-26T02:33:21;100797.13;;;13.70;41.11
50292;BME280;36190;54.980;73.388;2023-04-26T02:35:49;100794.38;;;13.79;40.93
50292;BME280;36190;54.980;73.388;2023-04-26T02:38:17;100801.50;;;13.86;40.96
50292;BME280;36190;54.980;73.388;2023-04-26T02:40:44;100801.28;;;13.96;40.63
50292;BME280;36190;54.980;73.388;2023-04-26T02:43:12;100809.25;;;14.05;40.59
50292;BME280;36190;54.980;73.388;2023-04-26T02:45:43;100814.38;;;14.14;40.42
50292;BME280;36190;54.980;73.388;2023-04-26T02:48:12;100807.06;;;14.23;40.27
50292;BME280;36190;54.980;73.388;2023-04-26T02:50:39;100810.31;;;14.34;40.11
50292;BME280;36190;54.980;73.388;2023-04-26T02:53:07;100817.28;;;14.43;39.90
50292;BME280;36190;54.980;73.388;2023-04-26T02:55:35;100813.03;;;14.49;39.92
50292;BME280;36190;54.980;73.388;2023-04-26T02:58:03;100808.75;;;14.54;39.69
50292;BME280;36190;54.980;73.388;2023-04-26T03:00:31;100815.06;;;14.62;39.42
50292;BME280;36190;54.980;73.388;2023-04-26T03:02:59;100810.63;;;14.69;39.52
50292;BME280;36190;54.980;73.388;2023-04-26T03:05:28;100815.94;;;14.77;39.40
50292;BME280;36190;54.980;73.388;2023-04-26T03:07:55;100816.19;;;14.82;39.61
50292;BME280;36190;54.980;73.388;2023-04-26T03:10:22;100801.00;;;14.90;39.37
50292;BME280;36190;54.980;73.388;2023-04-26T03:12:50;100811.28;;;15.01;39.09
50292;BME280;36190;54.980;73.388;2023-04-26T03:15:17;100814.50;;;15.11;39.07
50292;BME280;36190;54.980;73.388;2023-04-26T03:17:45;100813.38;;;15.21;38.90
50292;BME280;36190;54.980;73.388;2023-04-26T03:20:12;100808.06;;;15.27;38.78
50292;BME280;36190;54.980;73.388;2023-04-26T03:22:42;100818.06;;;15.34;38.64
50292;BME280;36190;54.980;73.388;2023-04-26T03:25:09;100809.88;;;15.42;38.62
50292;BME280;36190;54.980;73.388;2023-04-26T03:27:37;100811.25;;;15.53;38.60
50292;BME280;36190;54.980;73.388;2023-04-26T03:30:06;100817.13;;;15.63;38.46
50292;BME280;36190;54.980;73.388;2023-04-26T03:32:34;100820.38;;;15.74;38.22
50292;BME280;36190;54.980;73.388;2023-04-26T03:35:01;100817.34;;;15.84;37.93
50292;BME280;36190;54.980;73.388;2023-04-26T03:37:29;100812.69;;;15.92;37.77
50292;BME280;36190;54.980;73.388;2023-04-26T03:39:58;100824.59;;;16.05;37.78
50292;BME280;36190;54.980;73.388;2023-04-26T03:42:25;100816.81;;;16.17;37.42
50292;BME280;36190;54.980;73.388;2023-04-26T03:44:53;100820.66;;;16.29;37.23
50292;BME280;36190;54.980;73.388;2023-04-26T03:47:20;100823.00;;;16.39;37.36
50292;BME280;36190;54.980;73.388;2023-04-26T03:49:48;100820.56;;;16.51;37.22
50292;BME280;36190;54.980;73.388;2023-04-26T03:52:15;100832.66;;;16.62;36.82
50292;BME280;36190;54.980;73.388;2023-04-26T03:54:42;100830.03;;;16.69;36.75
50292;BME280;36190;54.980;73.388;2023-04-26T03:57:11;100819.91;;;16.77;36.68
50292;BME280;36190;54.980;73.388;2023-04-26T03:59:39;100819.75;;;16.86;36.37
50292;BME280;36190;54.980;73.388;2023-04-26T04:02:06;100819.38;;;16.96;36.32
50292;BME280;36190;54.980;73.388;2023-04-26T04:04:34;100815.09;;;17.01;36.29
50292;BME280;36190;54.980;73.388;2023-04-26T04:07:01;100825.53;;;17.18;36.05
50292;BME280;36190;54.980;73.388;2023-04-26T04:09:29;100827.66;;;17.29;35.77
50292;BME280;36190;54.980;73.388;2023-04-26T04:11:56;100836.19;;;17.40;35.56
50292;BME280;36190;54.980;73.388;2023-04-26T04:14:25;100832.88;;;17.51;35.48
50292;BME280;36190;54.980;73.388;2023-04-26T04:16:53;100830.41;;;17.63;35.30
50292;BME280;36190;54.980;73.388;2023-04-26T04:19:20;100829.59;;;17.76;35.03
50292;BME280;36190;54.980;73.388;2023-04-26T04:21:47;100835.47;;;17.86;34.88
50292;BME280;36190;54.980;73.388;2023-04-26T04:24:15;100841.47;;;17.95;34.67
50292;BME280;36190;54.980;73.388;2023-04-26T04:26:42;100833.16;;;17.97;34.56
50292;BME280;36190;54.980;73.388;2023-04-26T04:29:10;100846.31;;;18.07;34.37
50292;BME280;36190;54.980;73.388;2023-04-26T04:31:39;100839.22;;;18.12;34.34
50292;BME280;36190;54.980;73.388;2023-04-26T04:34:07;100835.28;;;18.22;34.27
50292;BME280;36190;54.980;73.388;2023-04-26T04:36:34;100857.28;;;18.32;33.95
50292;BME280;36190;54.980;73.388;2023-04-26T04:39:03;100852.28;;;18.42;33.96
50292;BME280;36190;54.980;73.388;2023-04-26T04:41:37;100844.59;;;18.53;33.71
50292;BME280;36190;54.980;73.388;2023-04-26T04:44:04;100849.56;;;18.63;33.68
50292;BME280;36190;54.980;73.388;2023-04-26T04:46:32;100844.16;;;18.69;33.40
50292;BME280;36190;54.980;73.388;2023-04-26T04:49:01;100839.34;;;18.78;33.15
50292;BME280;36190;54.980;73.388;2023-04-26T04:51:28;100859.28;;;18.91;33.10
50292;BME280;36190;54.980;73.388;2023-04-26T04:53:56;100854.47;;;19.00;32.83
50292;BME280;36190;54.980;73.388;2023-04-26T04:56:24;100850.53;;;19.09;32.90
50292;BME280;36190;54.980;73.388;2023-04-26T04:58:52;100834.88;;;19.18;32.63
50292;BME280;36190;54.980;73.388;2023-04-26T05:01:19;100843.59;;;19.27;32.51
50292;BME280;36190;54.980;73.388;2023-04-26T05:03:46;100837.09;;;19.34;32.48
50292;BME280;36190;54.980;73.388;2023-04-26T05:06:15;100840.13;;;19.45;32.31
50292;BME280;36190;54.980;73.388;2023-04-26T05:08:43;100849.25;;;19.57;32.32
50292;BME280;36190;54.980;73.388;2023-04-26T05:11:10;100845.84;;;19.69;31.90
50292;BME280;36190;54.980;73.388;2023-04-26T05:13:38;100838.28;;;19.77;31.83
50292;BME280;36190;54.980;73.388;2023-04-26T05:16:05;100840.06;;;19.90;31.61
50292;BME280;36190;54.980;73.388;2023-04-26T05:18:33;100848.16;;;19.97;31.48
50292;BME280;36190;54.980;73.388;2023-04-26T05:21:00;100847.28;;;20.03;31.17
50292;BME280;36190;54.980;73.388;2023-04-26T05:23:29;100845.97;;;20.13;30.91
50292;BME280;36190;54.980;73.388;2023-04-26T05:26:00;100852.16;;;20.20;30.76
50292;BME280;36190;54.980;73.388;2023-04-26T05:28:29;100847.53;;;20.27;30.71
50292;BME280;36190;54.980;73.388;2023-04-26T05:30:56;100849.09;;;20.35;30.62
50292;BME280;36190;54.980;73.388;2023-04-26T05:33:24;100844.44;;;20.42;30.48
50292;BME280;36190;54.980;73.388;2023-04-26T05:35:52;100850.22;;;20.53;30.23
50292;BME280;36190;54.980;73.388;2023-04-26T05:38:20;100838.84;;;20.63;30.12
50292;BME280;36190;54.980;73.388;2023-04-26T05:40:51;100852.09;;;20.71;29.87
50292;BME280;36190;54.980;73.388;2023-04-26T05:43:18;100844.50;;;20.80;29.91
50292;BME280;36190;54.980;73.388;2023-04-26T05:45:52;100838.59;;;20.90;29.57
50292;BME280;36190;54.980;73.388;2023-04-26T05:48:19;100830.16;;;20.98;29.84
50292;BME280;36190;54.980;73.388;2023-04-26T05:50:47;100843.41;;;21.06;29.53
50292;BME280;36190;54.980;73.388;2023-04-26T05:53:15;100842.94;;;21.09;29.31
50292;BME280;36190;54.980;73.388;2023-04-26T05:55:42;100837.88;;;21.13;29.18
50292;BME280;36190;54.980;73.388;2023-04-26T05:58:11;100832.38;;;21.20;29.13
50292;BME280;36190;54.980;73.388;2023-04-26T06:00:39;100832.66;;;21.30;28.93
50292;BME280;36190;54.980;73.388;2023-04-26T06:03:07;100828.78;;;21.38;28.89
50292;BME280;36190;54.980;73.388;2023-04-26T06:05:35;100829.16;;;21.41;28.54
50292;BME280;36190;54.980;73.388;2023-04-26T06:08:04;100849.88;;;21.54;28.38
50292;BME280;36190;54.980;73.388;2023-04-26T06:10:34;100831.38;;;21.63;28.19
50292;BME280;36190;54.980;73.388;2023-04-26T06:13:02;100834.84;;;21.70;27.89
50292;BME280;36190;54.980;73.388;2023-04-26T06:15:31;100832.84;;;21.78;27.87
50292;BME280;36190;54.980;73.388;2023-04-26T06:17:58;100828.38;;;21.83;27.90
50292;BME280;36190;54.980;73.388;2023-04-26T06:20:26;100821.19;;;21.89;27.59
50292;BME280;36190;54.980;73.388;2023-04-26T06:22:54;100833.84;;;21.95;27.45
50292;BME280;36190;54.980;73.388;2023-04-26T06:25:21;100828.06;;;22.04;27.23
50292;BME280;36190;54.980;73.388;2023-04-26T06:27:49;100822.28;;;22.12;27.08
50292;BME280;36190;54.980;73.388;2023-04-26T06:30:16;100825.22;;;22.22;26.66
50292;BME280;36190;54.980;73.388;2023-04-26T06:32:46;100821.09;;;22.32;26.23
50292;BME280;36190;54.980;73.388;2023-04-26T06:35:14;100823.81;;;22.44;26.26
50292;BME280;36190;54.980;73.388;2023-04-26T06:37:41;100819.91;;;22.51;25.90
50292;BME280;36190;54.980;73.388;2023-04-26T06:40:09;100830.91;;;22.57;25.24
50292;BME280;36190;54.980;73.388;2023-04-26T06:42:38;100816.59;;;22.61;24.81
50292;BME280;36190;54.980;73.388;2023-04-26T06:45:07;100829.50;;;22.66;24.18
50292;BME280;36190;54.980;73.388;2023-04-26T06:47:35;100825.81;;;22.72;23.98
50292;BME280;36190;54.980;73.388;2023-04-26T06:50:04;100825.69;;;22.79;23.78
50292;BME280;36190;54.980;73.388;2023-04-26T06:52:32;100818.31;;;22.91;23.70
50292;BME280;36190;54.980;73.388;2023-04-26T06:55:00;100816.16;;;23.05;23.71
50292;BME280;36190;54.980;73.388;2023-04-26T06:57:28;100810.44;;;23.19;23.26
50292;BME280;36190;54.980;73.388;2023-04-26T06:59:55;100806.97;;;23.35;22.95
50292;BME280;36190;54.980;73.388;2023-04-26T07:02:23;100815.06;;;23.47;22.86
50292;BME280;36190;54.980;73.388;2023-04-26T07:04:50;100810.44;;;23.48;23.05
50292;BME280;36190;54.980;73.388;2023-04-26T07:07:19;100813.56;;;23.40;23.17
50292;BME280;36190;54.980;73.388;2023-04-26T07:09:47;100814.63;;;23.39;23.20
50292;BME280;36190;54.980;73.388;2023-04-26T07:12:14;100812.06;;;23.32;22.95
50292;BME280;36190;54.980;73.388;2023-04-26T07:14:42;100822.13;;;23.31;22.71
50292;BME280;36190;54.980;73.388;2023-04-26T07:17:09;100814.41;;;23.40;22.44
50292;BME280;36190;54.980;73.388;2023-04-26T07:19:37;100811.13;;;23.55;22.19
50292;BME280;36190;54.980;73.388;2023-04-26T07:22:04;100802.72;;;23.74;21.99
50292;BME280;36190;54.980;73.388;2023-04-26T07:24:33;100816.84;;;23.88;21.97
50292;BME280;36190;54.980;73.388;2023-04-26T07:27:01;100818.31;;;23.79;21.65
50292;BME280;36190;54.980;73.388;2023-04-26T07:29:29;100820.06;;;23.68;21.50
50292;BME280;36190;54.980;73.388;2023-04-26T07:31:56;100811.38;;;23.71;21.65
50292;BME280;36190;54.980;73.388;2023-04-26T07:34:24;100808.34;;;23.84;21.81
50292;BME280;36190;54.980;73.388;2023-04-26T07:36:51;100806.09;;;23.98;21.80
50292;BME280;36190;54.980;73.388;2023-04-26T07:39:19;100819.13;;;24.08;21.24
50292;BME280;36190;54.980;73.388;2023-04-26T07:41:48;100806.84;;;24.11;21.31
50292;BME280;36190;54.980;73.388;2023-04-26T07:44:15;100799.09;;;24.20;21.08
50292;BME280;36190;54.980;73.388;2023-04-26T07:46:43;100811.22;;;24.29;21.26
50292;BME280;36190;54.980;73.388;2023-04-26T07:49:10;100806.75;;;24.40;21.42
50292;BME280;36190;54.980;73.388;2023-04-26T07:51:38;100810.44;;;24.51;21.39
50292;BME280;36190;54.980;73.388;2023-04-26T07:54:05;100802.31;;;24.56;21.12
50292;BME280;36190;54.980;73.388;2023-04-26T07:56:33;100801.81;;;24.59;21.06
50292;BME280;36190;54.980;73.388;2023-04-26T07:59:02;100800.31;;;24.68;21.10
50292;BME280;36190;54.980;73.388;2023-04-26T08:01:29;100798.97;;;24.71;20.78
50292;BME280;36190;54.980;73.388;2023-04-26T08:03:57;100802.59;;;24.77;21.08
50292;BME280;36190;54.980;73.388;2023-04-26T08:06:24;100821.28;;;24.85;20.94
50292;BME280;36190;54.980;73.388;2023-04-26T08:08:52;100805.53;;;24.92;20.77
50292;BME280;36190;54.980;73.388;2023-04-26T08:11:19;100814.72;;;25.08;20.59
50292;BME280;36190;54.980;73.388;2023-04-26T08:13:47;100804.81;;;25.24;20.48
50292;BME280;36190;54.980;73.388;2023-04-26T08:16:16;100801.16;;;25.41;20.37
50292;BME280;36190;54.980;73.388;2023-04-26T08:18:43;100802.13;;;25.57;20.17
50292;BME280;36190;54.980;73.388;2023-04-26T08:21:11;100815.16;;;25.77;20.12
50292;BME280;36190;54.980;73.388;2023-04-26T08:23:38;100832.75;;;25.92;19.79
50292;BME280;36190;54.980;73.388;2023-04-26T08:26:06;100812.34;;;26.00;19.96
50292;BME280;36190;54.980;73.388;2023-04-26T08:28:33;100803.25;;;25.94;19.72
50292;BME280;36190;54.980;73.388;2023-04-26T08:31:01;100802.13;;;25.90;19.88
50292;BME280;36190;54.980;73.388;2023-04-26T08:33:30;100801.94;;;26.02;19.72
50292;BME280;36190;54.980;73.388;2023-04-26T08:35:58;100807.53;;;26.17;19.71
50292;BME280;36190;54.980;73.388;2023-04-26T08:38:26;100817.38;;;26.18;19.92
50292;BME280;36190;54.980;73.388;2023-04-26T08:40:57;100806.69;;;26.17;20.03
50292;BME280;36190;54.980;73.388;2023-04-26T08:43:27;100801.22;;;26.17;19.82
50292;BME280;36190;54.980;73.388;2023-04-26T08:45:56;100802.75;;;26.35;19.79
50292;BME280;36190;54.980;73.388;2023-04-26T08:48:25;100800.34;;;26.49;19.75
50292;BME280;36190;54.980;73.388;2023-04-26T08:50:55;100814.66;;;26.61;19.57
50292;BME280;36190;54.980;73.388;2023-04-26T08:53:24;100799.94;;;26.78;19.35
50292;BME280;36190;54.980;73.388;2023-04-26T08:55:53;100800.31;;;27.02;19.46
50292;BME280;36190;54.980;73.388;2023-04-26T08:58:21;100804.97;;;27.07;18.92
50292;BME280;36190;54.980;73.388;2023-04-26T09:00:49;100808.25;;;27.09;19.17
50292;BME280;36190;54.980;73.388;2023-04-26T09:03:17;100819.25;;;27.20;19.15
50292;BME280;36190;54.980;73.388;2023-04-26T09:05:45;100799.22;;;27.14;19.35
50292;BME280;36190;54.980;73.388;2023-04-26T09:08:16;100798.44;;;27.13;19.14
50292;BME280;36190;54.980;73.388;2023-04-26T09:10:43;100804.47;;;27.31;19.10
50292;BME280;36190;54.980;73.388;2023-04-26T09:13:11;100796.63;;;27.55;19.17
50292;BME280;36190;54.980;73.388;2023-04-26T09:15:39;100800.69;;;27.73;18.84
50292;BME280;36190;54.980;73.388;2023-04-26T09:18:16;100792.50;;;27.79;19.08
50292;BME280;36190;54.980;73.388;2023-04-26T09:20:44;100808.94;;;27.73;18.83
50292;BME280;36190;54.980;73.388;2023-04-26T09:23:12;100792.22;;;27.65;19.14
50292;BME280;36190;54.980;73.388;2023-04-26T09:25:43;100794.13;;;27.64;18.99
50292;BME280;36190;54.980;73.388;2023-04-26T09:28:21;100789.75;;;27.68;19.11
50292;BME280;36190;54.980;73.388;2023-04-26T09:30:48;100797.44;;;27.77;18.96
50292;BME280;36190;54.980;73.388;2023-04-26T09:33:16;100782.59;;;27.88;18.73
50292;BME280;36190;54.980;73.388;2023-04-26T09:35:44;100793.03;;;28.02;18.20
50292;BME280;36190;54.980;73.388;2023-04-26T09:38:12;100781.47;;;28.15;18.30
50292;BME280;36190;54.980;73.388;2023-04-26T09:40:40;100771.59;;;28.30;18.09
50292;BME280;36190;54.980;73.388;2023-04-26T09:43:12;100788.53;;;28.52;17.78
50292;BME280;36190;54.980;73.388;2023-04-26T09:45:45;100785.94;;;28.77;17.66
50292;BME280;36190;54.980;73.388;2023-04-26T09:48:17;100775.22;;;28.91;17.23
50292;BME280;36190;54.980;73.388;2023-04-26T09:50:47;100802.69;;;28.91;17.41
50292;BME280;36190;54.980;73.388;2023-04-26T09:53:28;100788.47;;;28.68;17.87
50292;BME280;36190;54.980;73.388;2023-04-26T09:55:57;100787.88;;;28.76;17.53
50292;BME280;36190;54.980;73.388;2023-04-26T09:58:33;100792.72;;;29.00;17.76
50292;BME280;36190;54.980;73.388;2023-04-26T10:01:02;100790.44;;;29.13;17.23
50292;BME280;36190;54.980;73.388;2023-04-26T10:03:30;100794.91;;;29.03;17.09
50292;BME280;36190;54.980;73.388;2023-04-26T10:05:57;100789.47;;;28.93;17.13
50292;BME280;36190;54.980;73.388;2023-04-26T10:08:25;100792.75;;;28.95;17.21
50292;BME280;36190;54.980;73.388;2023-04-26T10:10:53;100791.09;;;28.99;17.18
50292;BME280;36190;54.980;73.388;2023-04-26T10:13:21;100796.34;;;28.90;17.26
50292;BME280;36190;54.980;73.388;2023-04-26T10:15:51;100781.28;;;28.77;17.67
50292;BME280;36190;54.980;73.388;2023-04-26T10:18:20;100790.00;;;28.95;17.58
50292;BME280;36190;54.980;73.388;2023-04-26T10:20:50;100787.06;;;29.26;17.10
50292;BME280;36190;54.980;73.388;2023-04-26T10:23:19;100789.56;;;29.62;17.42
50292;BME280;36190;54.980;73.388;2023-04-26T10:25:50;100794.31;;;29.86;16.78
50292;BME280;36190;54.980;73.388;2023-04-26T10:28:53;100790.00;;;30.04;16.79
50292;BME280;36190;54.980;73.388;2023-04-26T10:31:23;100784.25;;;30.06;16.74
50292;BME280;36190;54.980;73.388;2023-04-26T10:34:17;100797.31;;;30.19;16.89
50292;BME280;36190;54.980;73.388;2023-04-26T10:37:07;100785.00;;;30.36;16.47
50292;BME280;36190;54.980;73.388;2023-04-26T10:39:34;100788.97;;;30.30;16.57
50292;BME280;36190;54.980;73.388;2023-04-26T10:42:22;100801.78;;;30.15;16.11
50292;BME280;36190;54.980;73.388;2023-04-26T10:44:51;100793.69;;;29.95;16.29
50292;BME280;36190;54.980;73.388;2023-04-26T10:47:25;100796.81;;;30.12;16.46
50292;BME280;36190;54.980;73.388;2023-04-26T10:50:04;100794.28;;;30.45;15.88
50292;BME280;36190;54.980;73.388;2023-04-26T10:52:32;100795.34;;;30.74;15.70
50292;BME280;36190;54.980;73.388;2023-04-26T10:55:00;100802.03;;;30.68;15.62
50292;BME280;36190;54.980;73.388;2023-04-26T10:57:46;100812.31;;;30.57;15.59
50292;BME280;36190;54.980;73.388;2023-04-26T11:00:29;100799.91;;;30.59;15.64
50292;BME280;36190;54.980;73.388;2023-04-26T11:03:02;100791.72;;;30.79;15.58
50292;BME280;36190;54.980;73.388;2023-04-26T11:05:34;100803.41;;;31.09;15.36
50292;BME280;36190;54.980;73.388;2023-04-26T11:08:06;100786.59;;;31.30;15.20
50292;BME280;36190;54.980;73.388;2023-04-26T11:10:36;100790.06;;;31.88;15.09
50292;BME280;36190;54.980;73.388;2023-04-26T11:13:04;100787.75;;;32.23;14.79
50292;BME280;36190;54.980;73.388;2023-04-26T11:15:32;100802.41;;;32.37;14.77
50292;BME280;36190;54.980;73.388;2023-04-26T11:18:03;100790.84;;;32.21;14.64
50292;BME280;36190;54.980;73.388;2023-04-26T11:20:31;100790.91;;;32.02;14.89
50292;BME280;36190;54.980;73.388;2023-04-26T11:22:59;100796.44;;;31.69;14.71
50292;BME280;36190;54.980;73.388;2023-04-26T11:25:27;100797.03;;;31.66;14.80
50292;BME280;36190;54.980;73.388;2023-04-26T11:27:59;100796.59;;;31.92;15.02
50292;BME280;36190;54.980;73.388;2023-04-26T11:30:30;100794.50;;;32.17;14.75
50292;BME280;36190;54.980;73.388;2023-04-26T11:32:59;100793.38;;;32.18;14.34
50292;BME280;36190;54.980;73.388;2023-04-26T11:35:28;100796.31;;;31.93;13.93
50292;BME280;36190;54.980;73.388;2023-04-26T11:37:58;100791.19;;;31.53;14.09
50292;BME280;36190;54.980;73.388;2023-04-26T11:40:30;100796.84;;;31.43;14.33
50292;BME280;36190;54.980;73.388;2023-04-26T11:42:59;100804.91;;;31.39;14.36
50292;BME280;36190;54.980;73.388;2023-04-26T11:45:27;100795.81;;;31.39;14.27
50292;BME280;36190;54.980;73.388;2023-04-26T11:47:55;100794.97;;;31.58;14.31
50292;BME280;36190;54.980;73.388;2023-04-26T11:50:24;100791.50;;;31.66;14.26
50292;BME280;36190;54.980;73.388;2023-04-26T11:52:59;100794.53;;;31.50;14.38
50292;BME280;36190;54.980;73.388;2023-04-26T11:55:27;100806.16;;;31.09;14.47
50292;BME280;36190;54.980;73.388;2023-04-26T11:57:56;100789.25;;;30.77;14.88
50292;BME280;36190;54.980;73.388;2023-04-26T12:00:25;100793.78;;;30.68;14.67
50292;BME280;36190;54.980;73.388;2023-04-26T12:02:52;100785.78;;;30.66;14.84
50292;BME280;36190;54.980;73.388;2023-04-26T12:05:23;100789.63;;;30.65;15.03
50292;BME280;36190;54.980;73.388;2023-04-26T12:07:51;100786.31;;;30.68;14.77
50292;BME280;36190;54.980;73.388;2023-04-26T12:10:25;100782.22;;;30.85;14.73
50292;BME280;36190;54.980;73.388;2023-04-26T12:12:54;100772.63;;;31.01;14.47
50292;BME280;36190;54.980;73.388;2023-04-26T12:15:23;100778.78;;;31.37;14.61
50292;BME280;36190;54.980;73.388;2023-04-26T12:17:56;100789.63;;;31.47;14.44
50292;BME280;36190;54.980;73.388;2023-04-26T12:20:31;100780.03;;;31.25;14.63
50292;BME280;36190;54.980;73.388;2023-04-26T12:23:02;100790.88;;;30.78;14.59
50292;BME280;36190;54.980;73.388;2023-04-26T12:25:31;100786.63;;;30.18;15.03
50292;BME280;36190;54.980;73.388;2023-04-26T12:28:00;100779.03;;;29.75;15.45
50292;BME280;36190;54.980;73.388;2023-04-26T12:30:28;100790.53;;;29.47;15.43
50292;BME280;36190;54.980;73.388;2023-04-26T12:32:56;100779.41;;;29.23;15.75
50292;BME280;36190;54.980;73.388;2023-04-26T12:35:24;100780.25;;;29.18;15.86
50292;BME280;36190;54.980;73.388;2023-04-26T12:37:51;100775.06;;;29.12;15.95
50292;BME280;36190;54.980;73.388;2023-04-26T12:40:22;100777.38;;;28.99;15.87
50292;BME280;36190;54.980;73.388;2023-04-26T12:42:51;100776.31;;;28.90;15.60
50292;BME280;36190;54.980;73.388;2023-04-26T12:45:21;100765.63;;;28.88;16.00
50292;BME280;36190;54.980;73.388;2023-04-26T12:47:49;100773.56;;;28.79;15.92
50292;BME280;36190;54.980;73.388;2023-04-26T12:50:16;100777.28;;;28.54;16.10
50292;BME280;36190;54.980;73.388;2023-04-26T12:52:44;100770.50;;;28.25;16.46
50292;BME280;36190;54.980;73.388;2023-04-26T12:55:12;100769.97;;;28.03;16.46
50292;BME280;36190;54.980;73.388;2023-04-26T12:57:42;100770.03;;;27.77;16.46
50292;BME280;36190;54.980;73.388;2023-04-26T13:00:13;100771.66;;;27.62;16.96
50292;BME280;36190;54.980;73.388;2023-04-26T13:02:41;100768.63;;;27.48;16.83
50292;BME280;36190;54.980;73.388;2023-04-26T13:05:09;100774.34;;;27.26;17.12
50292;BME280;36190;54.980;73.388;2023-04-26T13:07:42;100763.91;;;27.07;17.46
50292;BME280;36190;54.980;73.388;2023-04-26T13:10:10;100770.47;;;27.01;17.46
50292;BME280;36190;54.980;73.388;2023-04-26T13:12:38;100767.09;;;26.83;17.30
50292;BME280;36190;54.980;73.388;2023-04-26T13:15:06;100779.06;;;26.61;17.55
50292;BME280;36190;54.980;73.388;2023-04-26T13:17:36;100776.50;;;26.39;17.79
50292;BME280;36190;54.980;73.388;2023-04-26T13:20:04;100773.63;;;26.18;17.90